Time;durP1;ratioP1;P1;durP2;ratioP2;P2;SDS_P1;SDS_P2;PMS_P1;PMS_P2;Temp;Humidity;BMP_temperature;BMP_pressure;BME280_temperature;BME280_humidity;BME280_pressure;Samples;Min_cycle;Max_cycle;Signal;HPM_P1;HPM_P2
2022/10/12 00:01:29;;;;;;;11.73;8.13;;;13.50;99.90;14.70;97594.00;;;;5088644;28;20202;-70
2022/10/12 00:04:18;;;;;;;10.07;8.43;;;13.50;99.90;14.70;97586.00;;;;5088154;28;20199;-70
2022/10/12 00:07:06;;;;;;;13.00;7.87;;;13.50;99.90;15.00;97595.00;;;;5088951;28;20634;-70
2022/10/12 00:09:55;;;;;;;11.40;7.37;;;13.50;99.90;15.00;97595.00;;;;5091718;28;20215;-70
2022/10/12 00:12:45;;;;;;;12.00;8.03;;;13.50;99.90;15.10;97597.00;;;;5081190;28;20641;-70
2022/10/12 00:15:38;;;;;;;11.23;7.33;;;13.50;99.90;14.90;97598.00;;;;5086837;28;20614;-70
2022/10/12 00:18:27;;;;;;;14.30;9.03;;;13.50;99.90;14.90;97590.00;;;;5082967;28;20219;-70
2022/10/12 00:21:17;;;;;;;9.20;7.80;;;13.50;99.90;15.00;97592.00;;;;5091755;28;20207;-70
2022/10/12 00:24:07;;;;;;;8.87;6.70;;;13.60;99.90;15.10;97591.00;;;;5092427;28;20249;-70
2022/10/12 00:26:56;;;;;;;14.27;8.47;;;13.60;99.90;15.20;97589.00;;;;5083047;28;20207;-70
2022/10/12 00:29:44;;;;;;;13.37;7.97;;;13.60;99.90;15.20;97585.00;;;;5091591;28;20253;-70
2022/10/12 00:32:34;;;;;;;13.87;8.53;;;13.60;99.90;15.00;97592.00;;;;5091792;28;20687;-70
2022/10/12 00:35:23;;;;;;;13.23;8.27;;;13.60;99.90;14.80;97578.00;;;;5092212;28;20192;-70
2022/10/12 00:38:12;;;;;;;12.07;9.03;;;13.60;99.90;14.70;97582.00;;;;5090844;28;20277;-70
2022/10/12 00:41:01;;;;;;;11.53;8.93;;;13.50;99.90;14.60;97577.00;;;;5086260;28;20707;-70
2022/10/12 00:43:50;;;;;;;12.97;9.60;;;13.50;99.90;14.60;97575.00;;;;5082515;28;20682;-70
2022/10/12 00:46:45;;;;;;;14.30;9.17;;;13.40;99.90;14.90;97575.00;;;;5080612;28;20199;-70
2022/10/12 00:49:35;;;;;;;11.47;9.70;;;13.40;99.90;14.90;97576.00;;;;5089372;28;20227;-70
2022/10/12 00:52:32;;;;;;;16.83;10.00;;;13.40;99.90;14.90;97578.00;;;;5092418;28;20223;-70
2022/10/12 00:55:24;;;;;;;10.80;9.70;;;13.50;99.90;14.80;97574.00;;;;5091032;28;20264;-70
2022/10/12 00:58:13;;;;;;;11.93;8.40;;;13.50;99.90;14.60;97559.00;;;;5077675;28;20223;-70
2022/10/12 01:01:03;;;;;;;16.77;8.67;;;13.40;99.90;14.60;97561.00;;;;5085505;28;20203;-70
2022/10/12 01:03:51;;;;;;;17.43;9.00;;;13.40;99.90;14.60;97568.00;;;;5084646;28;20211;-70
2022/10/12 01:06:41;;;;;;;13.17;9.37;;;13.40;99.90;14.60;97566.00;;;;5090546;28;20261;-70
2022/10/12 01:09:30;;;;;;;14.83;9.70;;;13.30;99.90;14.80;97565.00;;;;5090421;28;20215;-70
2022/10/12 01:12:20;;;;;;;12.80;8.90;;;13.30;99.90;14.90;97555.00;;;;5077620;28;20226;-70
2022/10/12 01:15:11;;;;;;;11.20;9.03;;;13.40;99.90;14.80;97559.00;;;;5088507;28;20248;-70
2022/10/12 01:18:07;;;;;;;11.57;9.80;;;13.40;99.90;14.50;97557.00;;;;5079491;28;20199;-70
2022/10/12 01:21:14;;;;;;;28.00;10.00;;;13.40;99.90;14.40;97551.00;;;;5089849;28;20203;-70
2022/10/12 01:24:35;;;;;;;13.50;9.47;;;13.30;99.90;14.40;97565.00;;;;5089670;28;20234;-70
2022/10/12 01:27:35;;;;;;;15.67;9.43;;;13.20;99.90;14.50;97566.00;;;;5083425;28;20199;-70
2022/10/12 01:30:29;;;;;;;10.47;8.27;;;13.20;99.90;14.60;97568.00;;;;5091171;28;20198;-70
2022/10/12 01:33:28;;;;;;;18.90;10.10;;;13.20;99.90;14.70;97562.00;;;;5090596;28;20234;-70
2022/10/12 01:36:24;;;;;;;12.77;8.23;;;13.20;99.90;14.80;97569.00;;;;5082649;28;20198;-70
2022/10/12 01:39:21;;;;;;;14.67;9.77;;;13.20;99.90;14.70;97564.00;;;;5080321;28;20222;-69
2022/10/12 01:42:16;;;;;;;17.37;10.57;;;13.30;99.90;14.70;97568.00;;;;5091145;28;20952;-70
2022/10/12 01:45:07;;;;;;;11.53;8.97;;;13.30;99.90;14.60;97562.00;;;;5089962;28;20200;-69
2022/10/12 01:47:58;;;;;;;16.43;11.93;;;13.30;99.90;14.50;97559.00;;;;5085005;28;20207;-70
2022/10/12 01:50:51;;;;;;;18.07;10.67;;;13.20;99.90;14.50;97561.00;;;;5090835;28;20581;-70
2022/10/12 01:53:46;;;;;;;20.00;9.87;;;13.20;99.90;14.60;97559.00;;;;5077326;28;20234;-69
2022/10/12 01:56:45;;;;;;;13.37;10.07;;;13.20;99.90;14.60;97553.00;;;;5090893;28;20212;-70
2022/10/12 01:59:49;;;;;;;15.63;11.00;;;13.20;99.90;14.70;97548.00;;;;5089481;28;20651;-69
2022/10/12 02:02:52;;;;;;;18.17;9.57;;;13.20;99.90;14.80;97550.00;;;;5078302;28;20200;-70
2022/10/12 02:05:49;;;;;;;10.93;9.10;;;13.20;99.90;14.70;97550.00;;;;5090287;28;20674;-69
2022/10/12 02:08:46;;;;;;;12.93;9.53;;;13.30;99.90;14.80;97544.00;;;;5080622;28;20298;-70
2022/10/12 02:11:38;;;;;;;11.70;9.53;;;13.30;99.90;14.60;97550.00;;;;5089343;28;20288;-70
2022/10/12 02:14:32;;;;;;;15.93;10.33;;;13.30;99.90;14.70;97543.00;;;;5090639;28;20247;-70
2022/10/12 02:17:23;;;;;;;11.90;9.10;;;13.30;99.90;14.70;97537.00;;;;5076366;28;20422;-70
2022/10/12 02:20:16;;;;;;;12.37;8.87;;;13.30;99.90;14.50;97541.00;;;;5086592;28;20223;-70
2022/10/12 02:23:08;;;;;;;13.10;9.97;;;13.20;99.90;14.70;97543.00;;;;5081318;28;20257;-70
2022/10/12 02:25:58;;;;;;;12.47;9.73;;;13.20;99.90;14.80;97540.00;;;;5082998;28;20207;-70
2022/10/12 02:28:49;;;;;;;21.07;9.17;;;13.20;99.90;14.80;97535.00;;;;5078007;28;20281;-70
2022/10/12 02:31:46;;;;;;;14.00;9.87;;;13.30;99.90;14.80;97537.00;;;;5085632;28;20192;-70
2022/10/12 02:34:40;;;;;;;14.63;9.60;;;13.30;99.90;14.80;97535.00;;;;5084837;28;20258;-70
2022/10/12 02:37:36;;;;;;;11.10;8.67;;;13.30;99.90;14.70;97530.00;;;;5089494;28;20735;-69
2022/10/12 02:40:33;;;;;;;12.73;9.07;;;13.30;99.90;14.50;97537.00;;;;5080972;28;20690;-70
2022/10/12 02:43:29;;;;;;;14.70;9.50;;;13.20;99.90;14.30;97532.00;;;;5089478;28;20266;-70
2022/10/12 02:46:19;;;;;;;10.80;9.70;;;13.20;99.90;14.20;97537.00;;;;5076861;28;20286;-70
2022/10/12 02:49:09;;;;;;;12.10;9.10;;;13.10;99.90;14.00;97532.00;;;;5088213;28;20223;-70
2022/10/12 02:51:58;;;;;;;11.47;9.40;;;13.00;99.90;14.10;97537.00;;;;5076942;28;20211;-69
2022/10/12 02:54:47;;;;;;;16.20;9.67;;;12.90;99.90;14.30;97524.00;;;;5084348;28;20689;-69
2022/10/12 02:57:37;;;;;;;15.00;8.90;;;12.90;99.90;14.40;97534.00;;;;5075458;28;20210;-70
2022/10/12 03:00:26;;;;;;;16.67;10.13;;;12.90;99.90;14.50;97537.00;;;;5077505;28;20196;-70
2022/10/12 03:03:15;;;;;;;16.30;9.40;;;12.90;99.90;14.50;97539.00;;;;5086442;28;20214;-70
2022/10/12 03:06:04;;;;;;;12.00;9.10;;;13.00;99.90;14.30;97529.00;;;;5080042;28;20195;-70
2022/10/12 03:08:55;;;;;;;16.17;10.53;;;12.90;99.90;14.00;97531.00;;;;5085966;28;20230;-70
2022/10/12 03:11:44;;;;;;;12.70;9.30;;;12.90;99.90;14.00;97521.00;;;;5084636;28;20196;-69
2022/10/12 03:14:36;;;;;;;13.97;9.37;;;12.90;99.90;14.10;97526.00;;;;5080359;28;20281;-70
2022/10/12 03:17:24;;;;;;;15.03;9.47;;;12.80;99.90;14.20;97524.00;;;;5083705;28;20223;-68
2022/10/12 03:20:13;;;;;;;16.10;10.30;;;12.80;99.90;14.30;97532.00;;;;5083887;28;20299;-68
2022/10/12 03:23:02;;;;;;;11.50;9.43;;;12.80;99.90;14.30;97527.00;;;;5088909;28;20211;-68
2022/10/12 03:25:51;;;;;;;11.87;9.20;;;12.80;99.90;14.30;97527.00;;;;5085554;28;20245;-68
2022/10/12 03:28:39;;;;;;;14.80;8.37;;;12.80;99.90;14.10;97530.00;;;;5088187;28;20227;-68
2022/10/12 03:31:30;;;;;;;13.17;9.83;;;12.80;99.90;13.90;97528.00;;;;5087786;28;20663;-70
2022/10/12 03:34:18;;;;;;;13.77;9.47;;;12.80;99.90;13.90;97524.00;;;;5087080;28;20219;-70
2022/10/12 03:37:07;;;;;;;14.97;9.73;;;12.70;99.90;13.90;97525.00;;;;5071269;28;20273;-70
2022/10/12 03:39:56;;;;;;;13.40;9.00;;;12.70;99.90;13.90;97526.00;;;;5082632;28;20232;-68
2022/10/12 03:42:44;;;;;;;11.23;9.10;;;12.70;99.90;14.00;97526.00;;;;5083276;28;20265;-70
2022/10/12 03:45:33;;;;;;;11.17;10.07;;;12.70;99.90;14.10;97522.00;;;;5092189;28;20202;-70
2022/10/12 03:48:23;;;;;;;13.13;10.07;;;12.70;99.90;14.20;97523.00;;;;5080623;28;20388;-70
2022/10/12 03:51:12;;;;;;;14.60;9.87;;;12.70;99.90;14.20;97521.00;;;;5081387;28;20621;-68
2022/10/12 03:54:01;;;;;;;13.23;9.60;;;12.70;99.90;14.20;97511.00;;;;5083572;28;20230;-70
2022/10/12 03:56:49;;;;;;;19.03;9.07;;;12.70;99.90;13.90;97513.00;;;;5082261;28;20206;-68
2022/10/12 03:59:38;;;;;;;10.67;9.20;;;12.70;99.90;13.70;97517.00;;;;5089325;28;20218;-68
2022/10/12 04:02:27;;;;;;;10.67;9.50;;;12.60;99.90;13.60;97516.00;;;;5090588;28;20669;-68
2022/10/12 04:05:17;;;;;;;13.23;8.87;;;12.50;99.90;13.70;97512.00;;;;5090556;28;20544;-67
2022/10/12 04:08:06;;;;;;;13.67;9.23;;;12.50;99.90;13.90;97516.00;;;;5084132;28;20195;-68
2022/10/12 04:10:55;;;;;;;14.23;9.10;;;12.50;99.90;14.00;97522.00;;;;5088291;28;20229;-68
2022/10/12 04:13:44;;;;;;;13.87;9.77;;;12.50;99.90;14.00;97511.00;;;;5091501;28;20224;-70
2022/10/12 04:16:32;;;;;;;17.07;10.80;;;12.50;99.90;14.00;97517.00;;;;5091240;28;20200;-70
2022/10/12 04:19:21;;;;;;;11.23;9.10;;;12.60;99.90;14.00;97512.00;;;;5085246;28;20219;-68
2022/10/12 04:22:12;;;;;;;11.93;9.47;;;12.60;99.90;13.80;97510.00;;;;5078885;28;20192;-69
2022/10/12 04:25:00;;;;;;;17.30;9.47;;;12.60;99.90;13.60;97521.00;;;;5086943;28;20261;-68
2022/10/12 04:27:49;;;;;;;12.87;9.20;;;12.50;99.90;13.40;97517.00;;;;5084236;28;20223;-70
2022/10/12 04:30:38;;;;;;;17.90;9.77;;;12.40;99.90;13.50;97524.00;;;;5081167;28;20200;-67
2022/10/12 04:33:27;;;;;;;16.40;9.60;;;12.30;99.90;13.30;97523.00;;;;5079314;28;20199;-67
2022/10/12 04:36:15;;;;;;;14.03;9.70;;;12.30;99.90;13.60;97517.00;;;;5080638;28;20637;-67
2022/10/12 04:39:05;;;;;;;12.33;9.27;;;12.20;99.90;13.60;97524.00;;;;5085912;28;20234;-69
2022/10/12 04:41:54;;;;;;;16.20;10.87;;;12.20;99.90;13.50;97516.00;;;;5084193;28;20678;-70
2022/10/12 04:44:43;;;;;;;12.77;9.97;;;12.20;99.90;13.30;97520.00;;;;5090947;28;20215;-70
2022/10/12 04:47:33;;;;;;;18.77;10.17;;;12.20;99.90;13.30;97522.00;;;;5087181;28;20204;-70
2022/10/12 04:50:22;;;;;;;12.80;9.93;;;12.10;99.90;13.50;97532.00;;;;5090308;28;20202;-70
2022/10/12 04:53:13;;;;;;;14.17;8.60;;;12.10;99.90;13.40;97524.00;;;;5092940;28;20240;-67
2022/10/12 04:56:05;;;;;;;14.37;10.27;;;12.10;99.90;13.50;97527.00;;;;5082982;28;20207;-70
2022/10/12 04:58:54;;;;;;;11.03;8.53;;;12.10;99.90;13.60;97524.00;;;;5082910;28;20690;-70
2022/10/12 05:01:43;;;;;;;10.50;9.20;;;12.20;99.90;13.50;97528.00;;;;5084246;28;20268;-69
2022/10/12 05:04:31;;;;;;;14.83;9.93;;;12.20;99.90;13.50;97532.00;;;;5085208;28;20226;-70
2022/10/12 05:07:25;;;;;;;17.57;11.13;;;12.20;99.90;13.50;97528.00;;;;5091115;28;20203;-69
2022/10/12 05:10:14;;;;;;;14.07;10.67;;;12.20;99.90;13.60;97526.00;;;;5087381;28;20196;-69
2022/10/12 05:13:04;;;;;;;12.60;10.37;;;12.20;99.90;13.60;97524.00;;;;5075532;28;20356;-69
2022/10/12 05:15:53;;;;;;;18.63;10.00;;;12.20;99.90;13.60;97527.00;;;;5079097;28;20226;-69
2022/10/12 05:18:41;;;;;;;13.67;9.50;;;12.20;99.90;13.60;97524.00;;;;5082301;28;20268;-69
2022/10/12 05:21:30;;;;;;;21.20;9.47;;;12.20;99.90;13.50;97537.00;;;;5091648;28;20673;-70
2022/10/12 05:24:19;;;;;;;12.87;9.00;;;12.20;99.90;13.30;97531.00;;;;5091274;28;20295;-70
2022/10/12 05:27:07;;;;;;;18.93;10.37;;;12.10;99.90;13.40;97535.00;;;;5088309;28;20223;-70
2022/10/12 05:29:57;;;;;;;15.53;9.83;;;12.10;99.90;13.40;97533.00;;;;5081069;28;20223;-70
2022/10/12 05:32:46;;;;;;;13.90;9.07;;;12.20;99.90;13.30;97534.00;;;;5077453;28;20607;-70
2022/10/12 05:35:35;;;;;;;13.00;8.90;;;12.20;99.90;13.20;97535.00;;;;5082523;28;20296;-69
2022/10/12 05:38:24;;;;;;;16.80;9.07;;;12.10;99.90;13.10;97528.00;;;;5084227;28;20223;-70
2022/10/12 05:41:12;;;;;;;14.77;10.00;;;12.10;99.90;13.20;97535.00;;;;5079389;28;20779;-70
2022/10/12 05:44:01;;;;;;;13.90;9.10;;;12.10;99.90;13.60;97537.00;;;;5086051;28;20249;-69
2022/10/12 05:46:51;;;;;;;13.30;9.57;;;12.10;99.90;13.80;97534.00;;;;5080632;28;20200;-69
2022/10/12 05:49:40;;;;;;;11.53;9.17;;;12.20;99.90;13.90;97534.00;;;;5089578;28;20211;-69
2022/10/12 05:52:29;;;;;;;12.17;8.87;;;12.30;99.90;13.80;97537.00;;;;5080587;28;20227;-70
2022/10/12 05:55:18;;;;;;;14.60;10.20;;;12.30;99.90;13.60;97535.00;;;;5081695;28;20712;-70
2022/10/12 05:58:06;;;;;;;13.07;9.10;;;12.30;99.90;13.50;97541.00;;;;5077216;28;20314;-70
2022/10/12 06:00:56;;;;;;;19.47;8.83;;;12.30;99.90;13.40;97540.00;;;;5075278;28;20288;-70
2022/10/12 06:03:46;;;;;;;12.47;8.73;;;12.30;99.90;13.50;97537.00;;;;5080983;28;20272;-70
2022/10/12 06:06:34;;;;;;;13.53;9.60;;;12.30;99.90;13.70;97543.00;;;;5083300;28;20207;-70
2022/10/12 06:09:23;;;;;;;11.60;9.53;;;12.30;99.90;13.80;97541.00;;;;5076909;28;20237;-70
2022/10/12 06:12:12;;;;;;;15.00;9.10;;;12.40;99.90;14.00;97543.00;;;;5089825;28;20241;-69
2022/10/12 06:15:01;;;;;;;14.60;9.40;;;12.40;99.90;14.20;97546.00;;;;5082676;28;20230;-69
2022/10/12 06:17:50;;;;;;;13.43;10.47;;;12.50;99.90;14.30;97543.00;;;;5081696;28;20210;-69
2022/10/12 06:20:40;;;;;;;12.67;9.47;;;12.60;99.90;14.50;97555.00;;;;5081154;28;20208;-70
2022/10/12 06:23:29;;;;;;;14.17;9.90;;;12.70;99.90;14.40;97560.00;;;;5083778;28;20214;-69
2022/10/12 06:26:17;;;;;;;14.00;8.87;;;12.80;99.90;14.40;97550.00;;;;5085641;28;20292;-69
2022/10/12 06:29:06;;;;;;;14.53;9.00;;;12.90;99.90;14.50;97553.00;;;;5088902;28;20304;-69
2022/10/12 06:31:55;;;;;;;11.20;8.00;;;12.90;99.90;14.50;97554.00;;;;5089430;28;20272;-69
2022/10/12 06:34:44;;;;;;;14.57;8.67;;;13.00;99.90;14.50;97553.00;;;;5079913;28;20223;-67
2022/10/12 06:37:35;;;;;;;24.97;9.07;;;13.00;99.90;14.50;97558.00;;;;5089217;28;20225;-70
2022/10/12 06:40:37;;;;;;;12.67;9.50;;;13.10;99.90;14.60;97553.00;;;;5083749;28;20188;-70
2022/10/12 06:43:26;;;;;;;11.00;9.00;;;13.10;99.90;14.70;97552.00;;;;5087351;28;20206;-67
2022/10/12 06:46:17;;;;;;;10.23;8.97;;;13.20;99.90;14.90;97554.00;;;;5089526;28;20231;-67
2022/10/12 06:49:06;;;;;;;9.07;8.17;;;13.30;99.90;14.80;97556.00;;;;5077346;28;20251;-68
2022/10/12 06:51:55;;;;;;;13.27;8.40;;;13.30;99.90;14.90;97557.00;;;;5082200;28;20686;-68
2022/10/12 06:54:45;;;;;;;14.47;8.20;;;13.40;99.90;15.00;97563.00;;;;5079547;28;20234;-68
2022/10/12 06:57:33;;;;;;;10.40;8.40;;;13.40;99.90;14.90;97557.00;;;;5078193;28;20203;-68
2022/10/12 07:00:23;;;;;;;11.50;7.80;;;13.50;99.90;15.00;97554.00;;;;5079404;28;20211;-68
2022/10/12 07:03:13;;;;;;;17.33;8.93;;;13.50;99.90;14.90;97559.00;;;;5078155;28;20196;-68
2022/10/12 07:06:07;;;;;;;14.07;8.00;;;13.60;99.90;15.10;97551.00;;;;5083553;28;21463;-68
2022/10/12 07:08:56;;;;;;;10.60;8.77;;;13.60;99.90;14.80;97562.00;;;;5084075;28;20219;-68
2022/10/12 07:11:46;;;;;;;14.93;9.80;;;13.60;99.90;15.00;97559.00;;;;5072916;28;20232;-68
2022/10/12 07:14:35;;;;;;;13.67;9.07;;;13.60;99.90;14.90;97557.00;;;;5077738;28;20187;-68
2022/10/12 07:17:24;;;;;;;9.80;8.20;;;13.70;99.90;15.00;97562.00;;;;5074761;28;20273;-68
2022/10/12 07:20:13;;;;;;;10.57;9.00;;;13.60;99.90;15.20;97553.00;;;;5080517;28;20227;-68
2022/10/12 07:23:01;;;;;;;9.87;7.87;;;13.70;99.90;15.30;97558.00;;;;5077604;28;20253;-68
2022/10/12 07:25:51;;;;;;;9.93;8.47;;;13.80;99.90;15.20;97547.00;;;;5079253;28;20203;-69
2022/10/12 07:28:41;;;;;;;8.73;7.50;;;13.80;99.90;15.40;97556.00;;;;5087780;28;20231;-68
2022/10/12 07:31:29;;;;;;;12.47;8.17;;;13.90;99.90;15.40;97556.00;;;;5076776;28;20883;-68
2022/10/12 07:34:18;;;;;;;10.27;8.40;;;13.90;99.90;15.60;97560.00;;;;5088680;28;20219;-68
2022/10/12 07:37:07;;;;;;;11.43;8.03;;;14.00;99.90;15.60;97554.00;;;;5082471;28;20303;-68
2022/10/12 07:39:56;;;;;;;13.00;9.00;;;14.00;99.90;15.80;97560.00;;;;5084376;28;20304;-68
2022/10/12 07:42:45;;;;;;;13.13;9.97;;;14.10;99.90;16.00;97558.00;;;;5080462;28;20199;-68
2022/10/12 07:45:54;;;;;;;10.87;7.77;;;14.20;99.90;16.40;97559.00;;;;5088409;28;20203;-68
2022/10/12 07:48:42;;;;;;;11.37;7.97;;;14.40;99.90;16.70;97569.00;;;;5086753;28;20241;-68
2022/10/12 07:51:35;;;;;;;18.50;8.93;;;14.60;99.90;16.80;97574.00;;;;5086704;28;20618;-69
2022/10/12 07:54:24;;;;;;;13.47;8.23;;;14.70;99.90;16.80;97573.00;;;;5086060;28;20199;-68
2022/10/12 07:57:15;;;;;;;10.23;8.83;;;14.90;99.90;16.90;97570.00;;;;5071806;28;20231;-68
2022/10/12 08:00:06;;;;;;;8.57;7.70;;;15.00;99.90;17.20;97567.00;;;;5081903;28;20230;-68
2022/10/12 08:02:56;;;;;;;11.07;7.97;;;15.20;99.90;17.20;97569.00;;;;5074533;28;20204;-68
2022/10/12 08:05:45;;;;;;;11.10;8.63;;;15.30;99.90;17.40;97563.00;;;;5085064;28;20211;-68
2022/10/12 08:08:34;;;;;;;11.43;9.43;;;15.40;99.90;17.40;97573.00;;;;5086946;28;20704;-68
2022/10/12 08:11:23;;;;;;;14.33;7.87;;;15.60;99.90;17.50;97566.00;;;;5075532;28;20231;-68
2022/10/12 08:14:14;;;;;;;13.33;9.03;;;15.60;99.90;17.50;97565.00;;;;5076767;28;20206;-68
2022/10/12 08:17:04;;;;;;;15.70;8.47;;;15.70;99.90;17.60;97567.00;;;;5076795;28;20224;-68
2022/10/12 08:19:54;;;;;;;15.77;9.73;;;15.80;99.90;17.70;97564.00;;;;5085404;28;20215;-68
2022/10/12 08:22:42;;;;;;;13.00;8.83;;;15.90;99.90;17.90;97555.00;;;;5075428;28;20218;-69
2022/10/12 08:25:32;;;;;;;12.10;9.63;;;15.90;99.90;18.00;97561.00;;;;5084689;28;20234;-68
2022/10/12 08:28:21;;;;;;;15.83;9.77;;;16.10;99.90;18.30;97566.00;;;;5083042;28;20315;-68
2022/10/12 08:31:12;;;;;;;13.97;8.30;;;16.20;99.90;18.30;97575.00;;;;5081337;28;20245;-68
2022/10/12 08:34:00;;;;;;;13.70;8.33;;;16.30;99.90;18.40;97569.00;;;;5081951;28;20203;-68
2022/10/12 08:36:51;;;;;;;11.73;9.03;;;16.40;99.90;18.20;97563.00;;;;5081945;28;20239;-68
2022/10/12 08:39:39;;;;;;;12.10;8.57;;;16.20;99.90;18.20;97569.00;;;;5083819;28;20263;-68
2022/10/12 08:42:46;;;;;;;10.17;8.87;;;16.50;99.90;18.20;97575.00;;;;5077476;28;21481;-68
2022/10/12 08:45:43;;;;;;;10.40;9.30;;;16.50;99.90;18.50;97571.00;;;;5083298;28;20226;-68
2022/10/12 08:48:38;;;;;;;13.23;9.03;;;16.60;99.90;18.60;97567.00;;;;5078163;28;20695;-68
2022/10/12 08:51:31;;;;;;;12.40;9.23;;;16.70;99.90;18.70;97559.00;;;;5088272;28;20191;-68
2022/10/12 08:54:24;;;;;;;11.73;9.63;;;16.70;99.90;18.90;97568.00;;;;5086487;28;20284;-68
2022/10/12 08:57:17;;;;;;;12.73;9.60;;;16.90;99.90;19.00;97563.00;;;;5070957;28;20247;-68
2022/10/12 09:00:13;;;;;;;16.40;8.63;;;17.00;99.90;19.20;97565.00;;;;5076217;28;20712;-68
2022/10/12 09:03:23;;;;;;;11.63;8.53;;;17.20;99.90;19.50;97568.00;;;;5082564;28;20215;-68
2022/10/12 09:06:17;;;;;;;9.47;8.13;;;17.40;99.90;19.70;97573.00;;;;5084893;28;20288;-68
2022/10/12 09:09:24;;;;;;;12.63;8.30;;;17.60;99.90;19.90;97577.00;;;;5074086;28;20641;-68
2022/10/12 09:12:28;;;;;;;14.27;8.60;;;17.70;99.90;20.10;97574.00;;;;5085979;28;20336;-68
2022/10/12 09:15:22;;;;;;;8.97;8.07;;;17.90;99.90;20.20;97575.00;;;;5077358;28;20682;-68
2022/10/12 09:18:19;;;;;;;13.43;9.30;;;18.10;99.90;20.50;97575.00;;;;5077281;28;20264;-68
2022/10/12 09:21:13;;;;;;;12.77;9.00;;;19.10;99.90;20.50;97583.00;;;;5076389;28;20241;-68
2022/10/12 09:24:06;;;;;;;11.27;8.63;;;18.40;99.90;20.30;97578.00;;;;5090283;28;20207;-68
2022/10/12 09:27:00;;;;;;;11.00;9.17;;;18.50;99.90;20.40;97586.00;;;;5083574;28;20202;-68
2022/10/12 09:29:55;;;;;;;9.00;7.57;;;18.50;99.90;20.50;97586.00;;;;5079971;28;20239;-68
2022/10/12 09:33:09;;;;;;;13.30;9.40;;;18.50;99.90;20.30;97586.00;;;;5076879;28;20865;-68
2022/10/12 09:35:58;;;;;;;13.77;11.23;;;18.70;99.90;19.60;97585.00;;;;5078847;28;20232;-69
2022/10/12 09:38:47;;;;;;;15.87;10.23;;;18.60;99.90;19.90;97569.00;;;;5082573;28;20242;-68
2022/10/12 09:41:41;;;;;;;17.03;10.90;;;18.50;99.90;19.90;97569.00;;;;5084092;28;20223;-68
2022/10/12 09:44:35;;;;;;;13.43;11.83;;;18.50;99.90;20.80;97573.00;;;;5077452;28;20706;-68
2022/10/12 09:47:28;;;;;;;15.03;10.10;;;18.70;99.90;20.70;97563.00;;;;5082500;28;20207;-69
2022/10/12 09:50:40;;;;;;;12.77;10.10;;;18.70;99.90;20.10;97583.00;;;;5085561;28;20628;-69
2022/10/12 09:53:32;;;;;;;15.80;11.50;;;18.80;99.90;19.40;97571.00;;;;5074257;28;20206;-69
2022/10/12 09:56:29;;;;;;;15.80;11.30;;;18.60;99.90;19.70;97583.00;;;;5083380;28;20304;-68
2022/10/12 09:59:37;;;;;;;14.13;10.43;;;18.30;99.90;19.90;97580.00;;;;5072604;28;20235;-67
2022/10/12 10:02:26;;;;;;;14.63;10.93;;;18.20;99.90;19.90;97584.00;;;;5082706;28;20645;-68
2022/10/12 10:05:25;;;;;;;13.43;10.50;;;18.20;99.90;20.00;97590.00;;;;5082320;28;20192;-69
2022/10/12 10:08:21;;;;;;;15.90;9.57;;;18.10;99.90;20.00;97587.00;;;;5072199;28;20219;-68
2022/10/12 10:11:16;;;;;;;15.90;9.77;;;18.20;99.90;20.10;97589.00;;;;5074884;28;20261;-69
2022/10/12 10:14:05;;;;;;;14.27;10.13;;;18.20;99.90;20.10;97590.00;;;;5077607;28;20192;-68
2022/10/12 10:16:55;;;;;;;16.60;10.87;;;18.20;99.90;20.00;97581.00;;;;5075053;28;20269;-68
2022/10/12 10:19:50;;;;;;;13.77;10.50;;;18.20;99.90;20.10;97589.00;;;;5079399;28;20263;-68
2022/10/12 10:22:48;;;;;;;14.27;12.33;;;18.20;99.90;20.00;97582.00;;;;5077736;28;20210;-69
2022/10/12 10:25:37;;;;;;;13.37;10.37;;;18.20;99.90;20.10;97580.00;;;;5076210;28;20242;-68
2022/10/12 10:28:29;;;;;;;12.77;11.07;;;18.20;99.90;20.30;97584.00;;;;5075462;28;20236;-69
2022/10/12 10:31:22;;;;;;;13.60;10.60;;;18.30;99.90;20.50;97584.00;;;;5082857;28;20203;-69
2022/10/12 10:34:26;;;;;;;13.63;10.70;;;18.40;99.90;20.60;97573.00;;;;5078951;28;20674;-68
2022/10/12 10:37:20;;;;;;;18.03;10.00;;;18.50;99.90;20.70;97566.00;;;;5076249;28;20227;-68
2022/10/12 10:40:21;;;;;;;15.23;10.17;;;18.60;99.90;20.90;97554.00;;;;5083543;28;20231;-68
2022/10/12 10:43:22;;;;;;;16.07;9.63;;;18.80;99.90;21.20;97560.00;;;;5078844;28;20229;-68
2022/10/12 10:46:12;;;;;;;9.33;8.43;;;19.00;99.90;21.90;97547.00;;;;5077861;28;20203;-69
2022/10/12 10:49:05;;;;;;;9.00;7.67;;;19.30;99.90;22.00;97558.00;;;;5074911;28;20599;-68
2022/10/12 10:51:58;;;;;;;11.93;7.07;;;19.60;99.90;20.90;97559.00;;;;5076589;28;20199;-69
2022/10/12 10:54:48;;;;;;;11.83;7.53;;;19.70;99.90;21.00;97565.00;;;;5084121;28;20191;-69
2022/10/12 10:57:41;;;;;;;18.37;7.70;;;19.50;99.90;20.80;97562.00;;;;5084191;28;20223;-68
2022/10/12 11:00:34;;;;;;;13.77;7.40;;;19.40;99.90;20.80;97563.00;;;;5070263;28;20200;-68
2022/10/12 11:03:31;;;;;;;11.37;7.53;;;19.20;99.90;21.00;97556.00;;;;5074859;28;20670;-68
2022/10/12 11:06:33;;;;;;;12.43;6.67;;;19.20;99.90;20.90;97555.00;;;;5074774;28;20192;-69
2022/10/12 11:09:29;;;;;;;9.30;6.77;;;19.20;99.90;21.10;97555.00;;;;5076162;28;20223;-69
2022/10/12 11:12:24;;;;;;;9.00;7.03;;;19.10;99.90;21.30;97545.00;;;;5078984;28;20215;-69
2022/10/12 11:15:22;;;;;;;9.90;6.77;;;19.20;99.90;21.40;97543.00;;;;5074346;28;20706;-69
2022/10/12 11:18:17;;;;;;;9.40;7.10;;;19.40;99.90;22.70;97525.00;;;;5071200;28;20796;-69
2022/10/12 11:21:14;;;;;;;12.27;6.27;;;19.80;99.90;23.50;97536.00;;;;5081910;28;20256;-69
2022/10/12 11:24:12;;;;;;;9.53;7.63;;;20.40;99.90;23.30;97524.00;;;;5084645;28;20199;-70
2022/10/12 11:27:09;;;;;;;7.93;6.07;;;20.80;99.90;24.30;97495.00;;;;5076183;28;20203;-69
2022/10/12 11:30:03;;;;;;;14.83;7.00;;;21.30;99.90;24.80;97499.00;;;;5077205;28;20242;-69
2022/10/12 11:33:03;;;;;;;10.37;6.80;;;21.90;99.90;25.10;97494.00;;;;5077998;28;20229;-69
2022/10/12 11:35:54;;;;;;;8.40;6.23;;;22.60;99.90;24.90;97519.00;;;;5074206;28;20200;-69
2022/10/12 11:38:47;;;;;;;10.13;5.23;;;22.90;99.90;25.30;97499.00;;;;5076874;28;20262;-69
2022/10/12 11:41:44;;;;;;;11.47;6.03;;;23.00;99.90;25.70;97497.00;;;;5083579;28;20195;-69
2022/10/12 11:44:48;;;;;;;9.40;6.27;;;23.40;99.90;26.10;97491.00;;;;5078084;28;20694;-69
2022/10/12 11:47:42;;;;;;;12.90;6.30;;;24.40;99.90;26.50;97495.00;;;;5082832;28;20203;-69
2022/10/12 11:50:36;;;;;;;11.23;5.80;;;24.10;99.90;26.20;97480.00;;;;5083792;28;20202;-69
2022/10/12 11:53:33;;;;;;;7.03;5.70;;;24.20;97.80;26.30;97485.00;;;;5088323;28;20253;-69
2022/10/12 11:56:28;;;;;;;9.93;6.57;;;24.30;96.90;27.00;97519.00;;;;5072306;28;20234;-69
2022/10/12 11:59:22;;;;;;;;;;;24.50;96.80;25.90;97524.00;;;;5082075;28;20040;-70
2022/10/12 12:02:16;;;;;;;;;;;24.40;94.80;25.00;97532.00;;;;5076681;28;20021;-70
2022/10/12 12:05:06;;;;;;;;;;;24.10;94.30;23.50;97514.00;;;;5083295;28;19931;-70
2022/10/12 12:07:55;;;;;;;;;;;23.30;93.90;22.40;97513.00;;;;5088276;28;19928;-70
2022/10/12 12:10:53;;;;;;;12.33;5.63;;;22.60;94.60;20.30;97503.00;;;;5084450;28;20214;-70
2022/10/12 12:13:42;;;;;;;7.20;5.67;;;21.30;96.10;20.00;97501.00;;;;5088557;28;20218;-69
2022/10/12 12:16:32;;;;;;;12.17;5.87;;;20.20;97.70;20.00;97510.00;;;;5087105;28;20195;-68
2022/10/12 12:19:41;;;;;;;9.90;6.97;;;19.50;99.90;19.30;97510.00;;;;5076963;28;20309;-69
2022/10/12 12:22:49;;;;;;;14.60;6.50;;;19.00;99.90;19.40;97497.00;;;;5076636;28;20200;-68
2022/10/12 12:25:38;;;;;;;9.83;7.17;;;18.50;99.90;19.60;97496.00;;;;5089340;28;20195;-68
2022/10/12 12:28:26;;;;;;;10.50;6.60;;;18.40;99.90;19.80;97483.00;;;;5086367;28;20633;-68
2022/10/12 12:31:25;;;;;;;10.37;6.80;;;18.30;99.90;20.40;97477.00;;;;5088315;28;20214;-68
2022/10/12 12:34:16;;;;;;;11.67;6.90;;;18.60;99.90;21.00;97480.00;;;;5083046;28;20196;-68
2022/10/12 12:37:12;;;;;;;12.13;6.17;;;19.00;99.90;22.30;97475.00;;;;5081949;28;20840;-68